createdAt,value
2019-04-20T00:02:04.353Z,20.25
2019-04-20T00:04:32.448Z,20.43
2019-04-20T00:06:59.218Z,16.55
2019-04-20T00:09:32.736Z,16.82
2019-04-20T00:12:07.060Z,23.32
2019-04-20T00:14:34.553Z,17.40
2019-04-20T00:17:03.023Z,13.45
2019-04-20T00:19:40.030Z,18.80
2019-04-20T00:22:08.259Z,12.80
2019-04-20T00:24:43.912Z,20.35
2019-04-20T00:27:40.227Z,14.83
2019-04-20T00:30:02.651Z,15.05
2019-04-20T00:32:29.631Z,14.95
2019-04-20T00:34:46.873Z,22.27
2019-04-20T00:37:16.991Z,17.98
2019-04-20T00:39:46.846Z,15.68
2019-04-20T00:42:17.887Z,17.73
2019-04-20T00:45:00.078Z,19.67
2019-04-20T00:47:30.890Z,20.40
2019-04-20T00:50:01.126Z,15.43
2019-04-20T00:52:31.069Z,13.32
2019-04-20T00:54:49.492Z,11.83
2019-04-20T00:57:30.083Z,11.15
2019-04-20T01:00:11.072Z,14.43
2019-04-20T01:02:33.571Z,23.38
2019-04-20T01:05:10.970Z,17.85
2019-04-20T01:07:33.121Z,19.98
2019-04-20T01:10:00.532Z,27.73
2019-04-20T01:12:31.748Z,19.55
2019-04-20T01:15:05.364Z,18.25
2019-04-20T01:17:32.459Z,15.58
2019-04-20T01:20:01.380Z,23.27
2019-04-20T01:22:35.572Z,28.83
2019-04-20T01:25:09.786Z,16.12
2019-04-20T01:27:43.854Z,22.42
2019-04-20T01:30:11.742Z,16.20
2019-04-20T01:32:52.733Z,12.60
2019-04-20T01:35:27.259Z,20.08
2019-04-20T01:37:54.194Z,15.68
2019-04-20T01:40:08.247Z,17.15
2019-04-20T01:42:38.332Z,20.23
2019-04-20T01:45:14.500Z,23.27
2019-04-20T01:47:45.833Z,23.30
2019-04-20T01:50:16.664Z,22.22
2019-04-20T01:52:50.776Z,16.55
2019-04-20T01:55:42.589Z,13.38
2019-04-20T01:58:17.675Z,26.10
2019-04-20T02:00:36.546Z,20.08
2019-04-20T02:03:22.806Z,14.87
2019-04-20T02:05:56.489Z,25.50
2019-04-20T02:08:24.290Z,19.75
2019-04-20T02:10:57.051Z,20.30
2019-04-20T02:13:21.563Z,17.45
2019-04-20T02:15:56.013Z,18.52
2019-04-20T02:18:33.725Z,21.77
2019-04-20T02:21:13.549Z,20.10
2019-04-20T02:23:33.580Z,16.50
2019-04-20T02:25:54.226Z,23.62
2019-04-20T02:28:44.650Z,26.42
2019-04-20T02:31:32.884Z,18.20
2019-04-20T02:33:59.269Z,18.77
2019-04-20T02:36:48.342Z,20.20
2019-04-20T02:39:30.536Z,24.47
2019-04-20T02:44:17.912Z,28.20
2019-04-20T02:46:44.796Z,15.03
2019-04-20T02:49:19.658Z,19.45
2019-04-20T02:51:41.197Z,17.85
2019-04-20T02:54:15.167Z,25.37
2019-04-20T02:56:47.635Z,21.10
2019-04-20T03:01:32.514Z,21.52
2019-04-20T03:03:50.317Z,28.07
2019-04-20T03:06:26.374Z,14.15
2019-04-20T03:09:09.000Z,17.40
2019-04-20T03:11:46.301Z,14.23
2019-04-20T03:14:07.230Z,20.10
2019-04-20T03:16:35.677Z,16.05
2019-04-20T03:19:04.819Z,14.65
2019-04-20T03:21:44.743Z,18.50
2019-04-20T03:24:16.078Z,20.20
2019-04-20T03:26:37.856Z,24.15
2019-04-20T03:29:35.989Z,25.70
2019-04-20T03:37:13.416Z,14.93
2019-04-20T03:39:32.463Z,17.75
2019-04-20T03:41:52.021Z,18.35
2019-04-20T03:44:23.705Z,17.82
2019-04-20T03:46:57.235Z,11.33
2019-04-20T03:49:42.434Z,23.07
2019-04-20T03:52:26.170Z,19.17
2019-04-20T03:54:52.259Z,20.70
2019-04-20T03:57:38.245Z,17.62
2019-04-20T04:00:21.890Z,10.88
2019-04-20T04:03:16.568Z,11.00
2019-04-20T04:05:27.494Z,18.12
2019-04-20T04:07:50.872Z,13.90
2019-04-20T04:10:28.305Z,16.80
2019-04-20T04:13:05.120Z,9.83
2019-04-20T04:15:36.198Z,20.37
2019-04-20T04:18:13.605Z,21.02
2019-04-20T04:20:49.216Z,17.25
2019-04-20T04:23:24.083Z,11.20
2019-04-20T04:25:55.679Z,18.62
2019-04-20T04:28:27.579Z,23.45
2019-04-20T04:31:06.325Z,20.70
2019-04-20T04:35:56.616Z,20.45
2019-04-20T04:38:39.556Z,20.92
2019-04-20T04:41:12.023Z,10.68
2019-04-20T04:43:40.123Z,20.88
2019-04-20T04:45:51.356Z,17.73
2019-04-20T04:48:27.663Z,15.85
2019-04-20T04:50:59.098Z,9.90
2019-04-20T04:53:30.281Z,17.70
2019-04-20T04:55:58.487Z,16.87
2019-04-20T04:58:23.684Z,12.90
2019-04-20T05:00:56.916Z,15.68
2019-04-20T05:03:38.591Z,11.22
2019-04-20T05:06:11.726Z,10.90
2019-04-20T05:08:34.525Z,13.85
2019-04-20T05:10:58.519Z,14.43
2019-04-20T05:13:38.093Z,15.68
2019-04-20T05:16:09.715Z,17.52
2019-04-20T05:18:50.028Z,22.17
2019-04-20T05:21:23.022Z,21.48
2019-04-20T05:23:47.998Z,19.10
2019-04-20T05:26:31.015Z,25.40
2019-04-20T05:28:58.970Z,11.43
2019-04-20T05:31:25.601Z,27.45
2019-04-20T05:34:15.735Z,11.40
2019-04-20T05:36:41.695Z,12.78
2019-04-20T05:39:27.146Z,18.12
2019-04-20T05:41:37.381Z,11.38
2019-04-20T05:44:11.301Z,13.72
2019-04-20T05:46:40.986Z,18.17
2019-04-20T05:49:17.127Z,21.20
2019-04-20T05:51:43.236Z,18.67
2019-04-20T05:54:23.649Z,20.40
2019-04-20T05:56:45.724Z,21.68
2019-04-20T05:59:15.003Z,24.18
2019-04-20T06:01:58.871Z,20.32
2019-04-20T06:04:28.761Z,25.40
2019-04-20T06:06:57.992Z,23.10
2019-04-20T06:09:28.422Z,20.65
2019-04-20T06:12:07.683Z,19.92
2019-04-20T06:14:15.249Z,20.77
2019-04-20T06:17:11.162Z,22.00
2019-04-20T06:19:38.347Z,16.62
2019-04-20T06:22:10.294Z,18.55
2019-04-20T06:24:46.908Z,19.20
2019-04-20T06:27:08.141Z,21.62
2019-04-20T06:29:43.919Z,18.92
2019-04-20T06:32:21.195Z,18.05
2019-04-20T06:34:41.573Z,20.52
2019-04-20T06:37:12.545Z,20.20
2019-04-20T06:39:50.589Z,17.25
2019-04-20T06:42:18.144Z,13.22
2019-04-20T06:44:44.767Z,12.28
2019-04-20T06:47:24.977Z,17.37
2019-04-20T06:49:42.085Z,20.17
2019-04-20T06:52:27.449Z,18.55
2019-04-20T06:55:36.759Z,13.68
2019-04-20T06:57:50.003Z,14.45
2019-04-20T07:00:15.356Z,16.02
2019-04-20T07:10:19.792Z,17.42
2019-04-20T07:12:45.065Z,15.35
2019-04-20T07:15:16.223Z,20.20
2019-04-20T07:17:57.726Z,24.43
2019-04-20T07:20:27.803Z,19.15
2019-04-20T07:23:11.609Z,15.35
2019-04-20T07:25:34.501Z,14.38
2019-04-20T07:27:59.367Z,14.70
2019-04-20T07:30:30.857Z,17.07
2019-04-20T07:33:04.496Z,18.57
2019-04-20T07:35:30.489Z,19.50
2019-04-20T07:40:35.493Z,21.85
2019-04-20T07:43:21.427Z,20.72
2019-04-20T07:45:35.052Z,18.85
2019-04-20T07:48:13.571Z,12.10
2019-04-20T07:50:29.668Z,10.80
2019-04-20T07:53:04.367Z,22.13
2019-04-20T07:55:45.792Z,19.87
2019-04-20T07:58:01.383Z,21.82
2019-04-20T08:00:48.464Z,24.77
2019-04-20T08:03:35.178Z,20.92
2019-04-20T08:05:48.711Z,12.75
2019-04-20T08:08:30.449Z,12.05
2019-04-20T08:10:59.572Z,10.68
2019-04-20T08:13:43.932Z,14.53
2019-04-20T08:18:52.587Z,10.25
2019-04-20T08:20:57.974Z,12.93
2019-04-20T08:23:33.549Z,13.35
2019-04-20T08:25:58.401Z,16.95
2019-04-20T08:28:31.589Z,16.30
2019-04-20T08:31:14.100Z,17.25
2019-04-20T08:34:04.812Z,15.98
2019-04-20T08:36:27.006Z,12.95
2019-04-20T08:41:20.922Z,10.82
2019-04-20T08:43:58.689Z,11.78
2019-04-20T08:46:26.537Z,11.97
2019-04-20T08:48:57.039Z,11.35
2019-04-20T08:51:38.639Z,12.53
2019-04-20T08:53:59.977Z,14.25
2019-04-20T08:56:21.973Z,16.07
2019-04-20T08:58:39.378Z,17.32
2019-04-20T09:01:10.297Z,18.52
2019-04-20T09:03:53.138Z,27.00
2019-04-20T09:06:23.775Z,24.07
2019-04-20T09:08:52.334Z,27.60
2019-04-20T09:11:39.217Z,21.82
2019-04-20T09:13:48.436Z,16.10
2019-04-20T09:16:15.252Z,11.53
2019-04-20T09:18:52.474Z,12.82
2019-04-20T09:21:34.600Z,15.23
2019-04-20T09:24:14.568Z,13.05
2019-04-20T09:26:42.303Z,12.65
2019-04-20T09:29:06.861Z,17.00
2019-04-20T09:31:40.898Z,13.35
2019-04-20T09:34:16.132Z,12.15
2019-04-20T09:36:46.065Z,10.95
2019-04-20T09:39:16.391Z,15.48
2019-04-20T09:42:00.665Z,15.43
2019-04-20T09:44:33.673Z,15.98
2019-04-20T09:46:59.467Z,17.25
2019-04-20T09:49:40.311Z,15.18
2019-04-20T09:52:14.522Z,17.65
2019-04-20T09:54:45.580Z,16.65
2019-04-20T09:57:19.135Z,14.83
2019-04-20T09:59:51.066Z,11.25
2019-04-20T10:02:07.734Z,9.83
2019-04-20T10:04:31.339Z,14.40
2019-04-20T10:07:07.651Z,14.13
2019-04-20T10:09:37.505Z,15.35
2019-04-20T10:12:01.648Z,13.58
2019-04-20T10:14:31.093Z,12.73
2019-04-20T10:17:00.143Z,16.27
2019-04-20T10:19:33.632Z,18.20
2019-04-20T10:22:00.393Z,23.57
2019-04-20T10:24:30.656Z,17.80
2019-04-20T10:27:00.729Z,23.70
2019-04-20T10:29:31.207Z,25.65
2019-04-20T10:32:05.725Z,21.52
2019-04-20T10:34:32.616Z,19.35
2019-04-20T10:37:03.874Z,21.65
2019-04-20T10:39:34.779Z,22.17
2019-04-20T10:42:04.352Z,21.35
2019-04-20T10:44:34.727Z,24.35
2019-04-20T10:47:05.030Z,34.00
2019-04-20T10:49:35.235Z,21.87
2019-04-20T10:52:05.467Z,28.42
2019-04-20T10:54:36.391Z,24.63
2019-04-20T10:57:05.803Z,20.23
2019-04-20T10:59:35.084Z,21.52
2019-04-20T11:02:05.673Z,19.00
2019-04-20T11:04:36.766Z,14.15
2019-04-20T11:07:06.069Z,12.98
2019-04-20T11:09:35.028Z,16.87
2019-04-20T11:12:06.270Z,25.32
2019-04-20T11:14:40.059Z,15.53
2019-04-20T11:17:06.598Z,18.00
2019-04-20T11:19:37.004Z,16.25
2019-04-20T11:22:06.673Z,17.32
2019-04-20T11:24:36.453Z,18.23
2019-04-20T11:27:05.405Z,13.72
2019-04-20T11:29:34.283Z,16.07
2019-04-20T11:32:03.264Z,12.88
2019-04-20T11:34:35.331Z,18.20
2019-04-20T11:37:03.398Z,13.70
2019-04-20T11:39:32.903Z,15.55
2019-04-20T11:42:02.029Z,16.60
2019-04-20T11:44:32.176Z,18.80
2019-04-20T11:47:02.799Z,16.82
2019-04-20T11:49:33.284Z,22.35
2019-04-20T11:52:03.600Z,19.02
2019-04-20T11:54:32.900Z,17.65
2019-04-20T11:57:01.799Z,23.47
2019-04-20T11:59:30.741Z,16.12
2019-04-20T12:02:09.326Z,14.70
2019-04-20T12:04:49.901Z,20.85
2019-04-20T12:07:13.295Z,17.32
2019-04-20T12:09:42.185Z,20.48
2019-04-20T12:12:23.495Z,22.85
2019-04-20T12:14:42.943Z,18.92
2019-04-20T12:17:13.566Z,23.40
2019-04-20T12:19:43.775Z,27.35
2019-04-20T12:22:13.864Z,30.77
2019-04-20T12:24:42.898Z,23.95
2019-04-20T12:27:12.546Z,22.30
2019-04-20T12:29:41.879Z,24.72
2019-04-20T12:32:10.825Z,29.90
2019-04-20T12:34:39.754Z,25.23
2019-04-20T12:37:09.062Z,22.48
2019-04-20T12:39:39.373Z,25.40
2019-04-20T12:42:09.620Z,23.80
2019-04-20T12:44:39.612Z,25.05
2019-04-20T12:47:09.914Z,30.17
2019-04-20T12:49:39.270Z,29.05
2019-04-20T12:52:08.544Z,32.88
2019-04-20T12:54:41.166Z,32.03
2019-04-20T12:57:09.040Z,29.00
2019-04-20T12:59:39.189Z,32.88
2019-04-20T13:02:09.234Z,25.45
2019-04-20T13:04:39.447Z,29.23
2019-04-20T13:07:09.993Z,27.22
2019-04-20T13:09:50.662Z,26.07
2019-04-20T13:12:34.555Z,33.50
2019-04-20T13:15:22.527Z,33.42
2019-04-20T13:17:52.855Z,32.78
2019-04-20T13:20:22.040Z,29.40
2019-04-20T13:22:51.111Z,29.18
2019-04-20T13:25:21.052Z,33.92
2019-04-20T13:27:50.491Z,31.68
2019-04-20T13:30:21.664Z,33.40
2019-04-20T13:32:51.947Z,34.85
2019-04-20T13:35:22.856Z,30.72
2019-04-20T13:37:52.037Z,35.15
2019-04-20T13:40:21.819Z,32.15
2019-04-20T13:42:51.924Z,33.60
2019-04-20T13:45:21.343Z,31.97
2019-04-20T13:47:50.848Z,28.75
2019-04-20T13:50:20.361Z,32.67
2019-04-20T13:52:49.241Z,32.50
2019-04-20T13:55:19.949Z,34.23
2019-04-20T13:58:00.350Z,34.60
2019-04-20T14:00:40.929Z,38.73
2019-04-20T14:03:11.748Z,31.48
2019-04-20T14:05:43.496Z,32.13
2019-04-20T14:08:17.627Z,35.92
2019-04-20T14:10:47.264Z,32.88
2019-04-20T14:13:19.175Z,31.50
2019-04-20T14:15:49.235Z,36.23
2019-04-20T14:18:19.427Z,31.52
2019-04-20T14:20:48.417Z,31.20
2019-04-20T14:23:17.428Z,28.83
2019-04-20T14:25:47.206Z,34.88
2019-04-20T14:28:16.590Z,37.38
2019-04-20T14:30:45.933Z,31.95
2019-04-20T14:33:15.196Z,32.95
2019-04-20T14:35:45.121Z,32.88
2019-04-20T14:38:15.395Z,31.48
2019-04-20T14:40:46.325Z,36.73
2019-04-20T14:43:15.509Z,32.17
2019-04-20T14:45:45.025Z,33.30
2019-04-20T14:48:14.070Z,35.65
2019-04-20T14:50:43.500Z,39.88
2019-04-20T14:53:13.607Z,41.13
2019-04-20T14:55:43.715Z,37.20
2019-04-20T14:58:31.495Z,39.00
2019-04-20T15:01:18.553Z,35.40
2019-04-20T15:03:49.936Z,34.90
2019-04-20T15:06:19.727Z,40.25
2019-04-20T15:08:50.376Z,37.50
2019-04-20T15:11:20.856Z,40.88
2019-04-20T15:13:53.020Z,39.73
2019-04-20T15:16:20.916Z,39.73
2019-04-20T15:18:58.102Z,38.50
2019-04-20T15:21:35.598Z,36.08
2019-04-20T15:24:05.907Z,39.85
2019-04-20T15:26:36.189Z,41.88
2019-04-20T15:29:06.340Z,41.40
2019-04-20T15:31:36.429Z,39.50
2019-04-20T15:34:06.761Z,36.55
2019-04-20T15:36:36.189Z,34.20
2019-04-20T15:39:07.458Z,38.08
2019-04-20T15:41:36.408Z,40.90
2019-04-20T15:44:07.090Z,32.50
2019-04-20T15:46:37.107Z,38.42
2019-04-20T15:49:08.488Z,35.52
2019-04-20T15:51:37.626Z,36.20
2019-04-20T15:54:07.535Z,36.53
2019-04-20T15:56:37.581Z,41.15
2019-04-20T15:59:08.328Z,39.42
2019-04-20T16:01:40.608Z,37.48
2019-04-20T16:04:25.235Z,38.80
2019-04-20T16:06:49.274Z,42.25
2019-04-20T16:09:19.860Z,46.50
2019-04-20T16:11:49.012Z,43.87
2019-04-20T16:14:19.543Z,41.85
2019-04-20T16:16:48.670Z,43.02
2019-04-20T16:19:29.205Z,44.20
2019-04-20T16:21:48.158Z,44.20
2019-04-20T16:24:19.043Z,42.70
2019-04-20T16:26:49.626Z,45.67
2019-04-20T16:29:19.832Z,47.38
2019-04-20T16:31:50.350Z,39.38
2019-04-20T16:34:19.508Z,45.80
2019-04-20T16:36:50.136Z,44.58
2019-04-20T16:39:18.998Z,42.03
2019-04-20T16:41:48.516Z,36.17
2019-04-20T16:44:17.897Z,36.13
2019-04-20T16:46:47.979Z,36.28
2019-04-20T16:49:17.183Z,32.33
2019-04-20T16:51:47.113Z,35.90
2019-04-20T16:54:17.481Z,33.90
2019-04-20T16:56:48.553Z,39.65
2019-04-20T16:59:19.297Z,45.03
2019-04-20T17:01:48.546Z,36.25
2019-04-20T17:04:22.052Z,44.30
2019-04-20T17:07:06.355Z,42.90
2019-04-20T17:09:35.670Z,41.10
2019-04-20T17:12:05.869Z,39.50
2019-04-20T17:14:35.683Z,43.15
2019-04-20T17:17:05.725Z,38.05
2019-04-20T17:19:35.531Z,43.78
2019-04-20T17:22:07.432Z,32.38
2019-04-20T17:24:37.715Z,30.85
2019-04-20T17:27:12.934Z,30.90
2019-04-20T17:30:01.109Z,24.98
2019-04-20T17:32:31.830Z,28.40
2019-04-20T17:35:15.770Z,25.97
2019-04-20T17:37:36.106Z,25.85
2019-04-20T17:40:19.048Z,28.62
2019-04-20T17:42:47.329Z,25.40
2019-04-20T17:45:10.396Z,28.02
2019-04-20T17:47:50.194Z,28.62
2019-04-20T17:50:29.323Z,27.98
2019-04-20T17:52:57.864Z,27.75
2019-04-20T17:55:26.550Z,22.80
2019-04-20T17:57:49.094Z,25.82
2019-04-20T18:00:35.868Z,26.97
2019-04-20T18:03:17.616Z,26.12
2019-04-20T18:05:55.816Z,28.30
2019-04-20T18:08:28.022Z,24.87
2019-04-20T18:10:45.643Z,29.60
2019-04-20T18:13:16.569Z,24.32
2019-04-20T18:15:59.293Z,33.85
2019-04-20T18:18:40.891Z,24.45
2019-04-20T18:21:08.609Z,28.15
2019-04-20T18:23:43.246Z,25.48
2019-04-20T18:26:31.884Z,27.70
2019-04-20T18:29:02.626Z,29.98
2019-04-20T18:31:31.493Z,32.50
2019-04-20T18:34:06.986Z,27.62
2019-04-20T18:36:42.866Z,29.25
2019-04-20T18:39:29.232Z,20.85
2019-04-20T18:42:01.146Z,24.07
2019-04-20T18:44:30.405Z,25.83
2019-04-20T18:47:16.707Z,27.35
2019-04-20T18:49:41.036Z,31.77
2019-04-20T18:52:04.232Z,27.48
2019-04-20T18:54:43.941Z,27.80
2019-04-20T18:57:14.305Z,26.33
2019-04-20T18:59:50.459Z,26.87
2019-04-20T19:02:23.090Z,27.83
2019-04-20T19:04:48.480Z,28.25
2019-04-20T19:07:21.822Z,24.15
2019-04-20T19:10:00.339Z,24.57
2019-04-20T19:12:34.526Z,26.77
2019-04-20T19:15:28.129Z,27.75
2019-04-20T19:17:49.345Z,23.42
2019-04-20T19:20:18.274Z,25.27
2019-04-20T19:22:48.195Z,27.10
2019-04-20T19:25:27.403Z,22.55
2019-04-20T19:27:55.611Z,25.92
2019-04-20T19:30:35.326Z,24.63
2019-04-20T19:33:14.502Z,28.57
2019-04-20T19:35:40.839Z,25.25
2019-04-20T19:38:09.581Z,27.85
2019-04-20T19:40:43.295Z,28.00
2019-04-20T19:43:13.696Z,25.20
2019-04-20T19:45:56.656Z,29.50
2019-04-20T19:48:17.413Z,26.70
2019-04-20T19:50:58.978Z,22.27
2019-04-20T19:53:26.727Z,21.70
2019-04-20T19:55:47.739Z,24.90
2019-04-20T19:58:19.278Z,27.55
2019-04-20T20:00:42.968Z,27.80
2019-04-20T20:03:12.792Z,27.65
2019-04-20T20:05:46.249Z,27.73
2019-04-20T20:08:19.326Z,28.10
2019-04-20T20:10:45.800Z,22.50
2019-04-20T20:13:15.046Z,25.37
2019-04-20T20:15:45.530Z,28.12
2019-04-20T20:18:32.240Z,29.23
2019-04-20T20:21:02.286Z,26.62
2019-04-20T20:23:16.204Z,27.82
2019-04-20T20:25:49.621Z,30.32
2019-04-20T20:28:31.146Z,29.95
2019-04-20T20:30:56.952Z,31.23
2019-04-20T20:33:35.838Z,29.70
2019-04-20T20:35:58.253Z,27.58
2019-04-20T20:38:33.188Z,31.25
2019-04-20T20:41:05.804Z,28.27
2019-04-20T20:43:40.944Z,25.85
2019-04-20T20:46:05.012Z,32.10
2019-04-20T20:48:39.533Z,33.20
2019-04-20T20:51:15.979Z,30.75
2019-04-20T20:53:38.738Z,30.37
2019-04-20T20:56:11.995Z,34.43
2019-04-20T20:58:45.513Z,34.00
2019-04-20T21:01:10.772Z,31.85
2019-04-20T21:03:40.334Z,31.40
2019-04-20T21:06:09.688Z,40.05
2019-04-20T21:08:45.873Z,30.62
2019-04-20T21:11:13.078Z,41.13
2019-04-20T21:13:45.226Z,44.85
2019-04-20T21:16:17.112Z,31.12
2019-04-20T21:19:03.202Z,30.30
2019-04-20T21:21:27.459Z,38.15
2019-04-20T21:24:00.265Z,31.77
2019-04-20T21:26:29.595Z,35.73
2019-04-20T21:28:53.149Z,34.15
2019-04-20T21:31:29.265Z,28.52
2019-04-20T21:34:02.822Z,34.75
2019-04-20T21:36:31.785Z,36.00
2019-04-20T21:39:01.520Z,28.98
2019-04-20T21:41:31.064Z,36.25
2019-04-20T21:44:06.801Z,31.90
2019-04-20T21:46:40.923Z,27.32
2019-04-20T21:49:25.302Z,34.18
2019-04-20T21:51:47.549Z,27.62
2019-04-20T21:54:09.799Z,29.12
2019-04-20T21:56:48.803Z,30.68
2019-04-20T21:59:20.417Z,33.63
2019-04-20T22:01:55.281Z,34.03
2019-04-20T22:04:16.417Z,34.05
2019-04-20T22:06:50.179Z,36.63
2019-04-20T22:09:32.224Z,36.35
2019-04-20T22:11:56.085Z,38.08
2019-04-20T22:14:33.897Z,28.30
2019-04-20T22:17:05.238Z,27.98
2019-04-20T22:19:44.109Z,31.60
2019-04-20T22:22:18.635Z,35.28
2019-04-20T22:24:50.496Z,32.88
2019-04-20T22:27:18.519Z,32.15
2019-04-20T22:29:41.816Z,31.85
2019-04-20T22:32:16.529Z,32.90
2019-04-20T22:34:47.506Z,32.17
2019-04-20T22:37:18.367Z,34.18
2019-04-20T22:39:49.956Z,35.60
2019-04-20T22:42:18.239Z,38.53
2019-04-20T22:44:54.823Z,33.88
2019-04-20T22:47:23.330Z,37.13
2019-04-20T22:50:09.616Z,24.45
2019-04-20T22:52:37.746Z,29.90
2019-04-20T22:55:12.758Z,31.37
2019-04-20T22:57:36.281Z,32.65
2019-04-20T23:00:01.882Z,26.00
2019-04-20T23:02:23.632Z,32.98
2019-04-20T23:04:53.113Z,21.10
2019-04-20T23:07:23.051Z,31.33
2019-04-20T23:09:56.469Z,38.95
2019-04-20T23:12:26.659Z,34.58
2019-04-20T23:14:54.471Z,31.50
2019-04-20T23:17:29.630Z,32.05
2019-04-20T23:19:58.253Z,34.60
2019-04-20T23:22:33.979Z,31.23
2019-04-20T23:24:59.481Z,41.25
2019-04-20T23:27:31.543Z,34.23
2019-04-20T23:30:03.593Z,38.92
2019-04-20T23:32:32.087Z,35.58
2019-04-20T23:35:04.923Z,38.15
2019-04-20T23:37:34.704Z,38.85
2019-04-20T23:40:03.082Z,36.65
2019-04-20T23:42:40.191Z,43.25
2019-04-20T23:45:26.995Z,42.08
2019-04-20T23:48:01.335Z,43.38
2019-04-20T23:50:59.641Z,32.08
2019-04-20T23:53:16.467Z,28.83
2019-04-20T23:55:28.129Z,26.30
2019-04-20T23:58:03.180Z,39.55
